createdAt,value
2022-09-15T00:00:58.503Z,100773.88
2022-09-15T00:03:25.105Z,100775.00
2022-09-15T00:05:53.595Z,100762.41
2022-09-15T00:08:20.825Z,100769.84
2022-09-15T00:10:56.345Z,100764.34
2022-09-15T00:13:23.324Z,100759.19
2022-09-15T00:15:50.446Z,100761.94
2022-09-15T00:18:17.391Z,100752.06
2022-09-15T00:20:45.323Z,100764.69
2022-09-15T00:23:13.905Z,100763.38
2022-09-15T00:25:45.909Z,100766.94
2022-09-15T00:28:14.331Z,100767.72
2022-09-15T00:30:50.053Z,100759.03
2022-09-15T00:33:17.430Z,100765.31
2022-09-15T00:35:45.431Z,100760.94
2022-09-15T00:38:13.672Z,100759.31
2022-09-15T00:40:59.843Z,100756.59
2022-09-15T00:44:04.137Z,100757.72
2022-09-15T00:46:30.536Z,100765.44
2022-09-15T00:49:03.239Z,100762.41
2022-09-15T00:51:39.101Z,100773.38
2022-09-15T00:54:10.471Z,100765.75
2022-09-15T00:56:41.600Z,100771.25
2022-09-15T00:59:12.239Z,100772.88
2022-09-15T01:01:40.531Z,100764.94
2022-09-15T01:04:07.172Z,100769.63
2022-09-15T01:06:37.359Z,100758.34
2022-09-15T01:09:23.952Z,100762.50
2022-09-15T01:11:50.939Z,100769.94
2022-09-15T01:14:17.521Z,100760.44
2022-09-15T01:16:47.087Z,100766.72
2022-09-15T01:19:51.539Z,100767.53
2022-09-15T01:22:21.115Z,100774.47
2022-09-15T01:25:12.198Z,100774.47
2022-09-15T01:27:56.261Z,100780.75
2022-09-15T01:30:24.372Z,100776.41
2022-09-15T01:33:12.575Z,100770.09
2022-09-15T01:35:51.713Z,100761.06
2022-09-15T01:38:34.949Z,100759.47
2022-09-15T01:41:13.565Z,100761.38
2022-09-15T01:43:49.698Z,100764.13
2022-09-15T01:46:19.597Z,100763.31
2022-09-15T01:48:49.420Z,100771.53
2022-09-15T01:51:16.808Z,100773.47
2022-09-15T01:53:44.928Z,100768.00
2022-09-15T01:56:12.567Z,100767.53
2022-09-15T01:58:40.751Z,100769.44
2022-09-15T02:01:18.933Z,100768.63
2022-09-15T02:03:51.604Z,100768.63
2022-09-15T02:06:35.682Z,100762.66
2022-09-15T02:09:13.895Z,100765.41
2022-09-15T02:12:19.632Z,100758.31
2022-09-15T02:15:10.459Z,100762.97
2022-09-15T02:17:45.589Z,100778.34
2022-09-15T02:20:39.116Z,100766.84
2022-09-15T02:23:13.827Z,100773.16
2022-09-15T02:25:51.642Z,100778.97
2022-09-15T02:28:23.911Z,100773.47
2022-09-15T02:30:54.243Z,100771.88
2022-09-15T02:33:24.238Z,100772.97
2022-09-15T02:35:52.211Z,100768.28
2022-09-15T02:38:18.701Z,100774.91
2022-09-15T02:40:45.261Z,100777.66
2022-09-15T02:43:14.765Z,100779.59
2022-09-15T02:45:41.720Z,100776.03
2022-09-15T02:48:11.728Z,100774.09
2022-09-15T02:50:38.933Z,100784.59
2022-09-15T02:53:05.746Z,100776.34
2022-09-15T02:55:32.377Z,100777.19
2022-09-15T02:57:59.674Z,100776.69
2022-09-15T03:00:28.353Z,100777.47
2022-09-15T03:02:56.113Z,100771.19
2022-09-15T03:05:26.007Z,100774.28
2022-09-15T03:07:53.564Z,100781.38
2022-09-15T03:10:21.175Z,100790.41
2022-09-15T03:12:50.106Z,100779.25
2022-09-15T03:15:19.284Z,100778.94
2022-09-15T03:17:47.268Z,100776.84
2022-09-15T03:20:20.141Z,100781.19
2022-09-15T03:22:47.595Z,100782.00
2022-09-15T03:25:14.336Z,100787.81
2022-09-15T03:27:40.828Z,100786.69
2022-09-15T03:30:08.678Z,100792.78
2022-09-15T03:32:35.358Z,100788.13
2022-09-15T03:35:02.251Z,100796.69
2022-09-15T03:37:28.763Z,100797.47
2022-09-15T03:39:56.116Z,100788.44
2022-09-15T03:42:22.753Z,100795.06
2022-09-15T03:44:49.202Z,100793.94
2022-09-15T03:47:15.773Z,100792.00
2022-09-15T03:49:42.346Z,100789.56
2022-09-15T03:52:08.823Z,100787.63
2022-09-15T03:54:35.644Z,100787.94
2022-09-15T03:57:03.493Z,100796.16
2022-09-15T03:59:30.136Z,100800.03
2022-09-15T04:01:56.661Z,100805.53
2022-09-15T04:04:23.220Z,100799.25
2022-09-15T04:06:49.665Z,100805.53
2022-09-15T04:09:16.210Z,100802.78
2022-09-15T04:11:42.816Z,100797.63
2022-09-15T04:14:09.375Z,100811.34
2022-09-15T04:16:35.933Z,100806.16
2022-09-15T04:19:02.430Z,100806.16
2022-09-15T04:21:30.104Z,100801.81
2022-09-15T04:23:56.610Z,100805.34
2022-09-15T04:26:23.020Z,100800.19
2022-09-15T04:28:49.548Z,100799.06
2022-09-15T04:31:17.597Z,100801.00
2022-09-15T04:33:45.332Z,100792.78
2022-09-15T04:36:24.212Z,100802.94
2022-09-15T04:38:51.769Z,100793.91
2022-09-15T04:41:19.080Z,100798.56
2022-09-15T04:43:45.964Z,100806.78
2022-09-15T04:46:14.066Z,100798.56
2022-09-15T04:48:41.123Z,100795.00
2022-09-15T04:51:11.732Z,100798.09
2022-09-15T04:53:38.300Z,100804.38
2022-09-15T04:56:09.158Z,100792.59
2022-09-15T04:58:41.182Z,100801.97
2022-09-15T05:01:16.483Z,100804.72
2022-09-15T05:03:44.151Z,100786.59
2022-09-15T05:06:13.320Z,100790.16
2022-09-15T05:08:40.007Z,100790.16
2022-09-15T05:11:12.156Z,100796.47
2022-09-15T05:13:40.057Z,100797.56
2022-09-15T05:16:13.224Z,100805.81
2022-09-15T05:18:41.335Z,100802.25
2022-09-15T05:21:10.034Z,100807.75
2022-09-15T05:23:37.344Z,100805.34
2022-09-15T05:26:06.714Z,100806.47
2022-09-15T05:28:35.766Z,100802.59
2022-09-15T05:31:07.013Z,100803.72
2022-09-15T05:33:34.807Z,100801.78
2022-09-15T05:36:01.518Z,100801.78
2022-09-15T05:38:32.338Z,100796.94
2022-09-15T05:41:10.297Z,100795.78
2022-09-15T05:43:37.975Z,100795.00
2022-09-15T05:46:05.476Z,100794.19
2022-09-15T05:48:32.000Z,100803.22
2022-09-15T05:50:58.556Z,100801.59
2022-09-15T05:53:26.266Z,100800.47
2022-09-15T05:56:00.183Z,100811.44
2022-09-15T05:58:27.563Z,100809.03
2022-09-15T06:00:54.705Z,100810.63
2022-09-15T06:03:23.281Z,100812.59
2022-09-15T06:05:59.460Z,100809.03
2022-09-15T06:08:29.833Z,100814.00
2022-09-15T06:11:01.646Z,100807.72
2022-09-15T06:13:28.082Z,100821.44
2022-09-15T06:15:54.680Z,100823.84
2022-09-15T06:18:21.202Z,100815.16
2022-09-15T06:20:47.889Z,100820.63
2022-09-15T06:23:14.324Z,100822.56
2022-09-15T06:25:40.890Z,100842.56
2022-09-15T06:28:07.323Z,100839.31
2022-09-15T06:30:33.796Z,100840.13
2022-09-15T06:33:00.265Z,100840.97
2022-09-15T06:35:26.705Z,100844.31
2022-09-15T06:37:53.243Z,100842.06
2022-09-15T06:40:19.782Z,100842.06
2022-09-15T06:42:46.348Z,100848.69
2022-09-15T06:45:12.928Z,100845.13
2022-09-15T06:47:39.388Z,100851.75
2022-09-15T06:50:06.897Z,100852.84
2022-09-15T06:52:33.672Z,100855.59
2022-09-15T06:55:00.375Z,100851.75
2022-09-15T06:57:26.914Z,100856.41
2022-09-15T06:59:53.703Z,100865.94
2022-09-15T07:02:20.209Z,100862.72
2022-09-15T07:04:46.732Z,100863.81
2022-09-15T07:07:13.171Z,100874.78
2022-09-15T07:09:41.335Z,100868.47
2022-09-15T07:12:08.203Z,100873.16
2022-09-15T07:14:34.632Z,100866.84
2022-09-15T07:17:01.162Z,100868.47
2022-09-15T07:19:27.671Z,100880.88
2022-09-15T07:21:54.151Z,100872.34
2022-09-15T07:24:20.677Z,100872.34
2022-09-15T07:26:47.154Z,100886.34
2022-09-15T07:29:13.842Z,100892.66
2022-09-15T07:31:40.655Z,100896.22
2022-09-15T07:34:08.035Z,100894.56
2022-09-15T07:36:34.756Z,100898.16
2022-09-15T07:39:03.629Z,100891.84
2022-09-15T07:41:31.628Z,100903.94
2022-09-15T07:44:00.375Z,100906.69
2022-09-15T07:46:30.101Z,100905.06
2022-09-15T07:48:56.707Z,100914.09
2022-09-15T07:51:23.923Z,100902.31
2022-09-15T07:53:51.429Z,100914.91
2022-09-15T07:56:18.486Z,100910.56
2022-09-15T07:58:46.080Z,100907.81
2022-09-15T08:01:14.846Z,100914.09
2022-09-15T08:03:52.083Z,100919.91
2022-09-15T08:06:23.008Z,100929.75
2022-09-15T08:08:52.284Z,100928.94
2022-09-15T08:11:21.087Z,100940.19
2022-09-15T08:13:49.723Z,100939.91
2022-09-15T08:16:19.457Z,100939.09
2022-09-15T08:18:46.758Z,100950.06
2022-09-15T08:21:16.323Z,100950.06
2022-09-15T08:23:43.289Z,100957.50
2022-09-15T08:26:14.279Z,100962.97
2022-09-15T08:28:41.628Z,100964.88
2022-09-15T08:31:11.461Z,100968.75
2022-09-15T08:33:41.966Z,100978.59
2022-09-15T08:36:12.060Z,100980.53
2022-09-15T08:38:40.627Z,100974.25
2022-09-15T08:41:30.990Z,100985.22
2022-09-15T08:43:57.293Z,100993.75
2022-09-15T08:46:29.268Z,100992.94
2022-09-15T08:49:50.059Z,100989.06
2022-09-15T08:52:23.255Z,100998.44
2022-09-15T08:54:53.209Z,100997.31
2022-09-15T08:57:23.493Z,100997.31
2022-09-15T08:59:49.889Z,100998.44
2022-09-15T09:02:33.580Z,100995.69
2022-09-15T09:05:29.302Z,100999.25
2022-09-15T09:08:18.661Z,100986.81
2022-09-15T09:11:14.826Z,100984.72
2022-09-15T09:13:59.095Z,100991.81
2022-09-15T09:16:30.678Z,100987.47
2022-09-15T09:18:57.051Z,100982.78
2022-09-15T09:21:35.271Z,100985.53
2022-09-15T09:24:13.327Z,100989.06
2022-09-15T09:26:40.238Z,100978.91
2022-09-15T09:29:16.384Z,100978.09
2022-09-15T09:31:45.904Z,100988.75
2022-09-15T09:34:27.596Z,100984.41
2022-09-15T09:36:59.035Z,100985.22
2022-09-15T09:39:27.759Z,100970.69
2022-09-15T09:41:55.160Z,100980.22
2022-09-15T09:44:31.639Z,100984.91
2022-09-15T09:46:59.690Z,100983.78
2022-09-15T09:49:39.949Z,100981.03
2022-09-15T09:52:06.348Z,100978.28
2022-09-15T09:54:34.166Z,100982.66
2022-09-15T09:57:13.011Z,100988.13
2022-09-15T09:59:45.278Z,100987.81
2022-09-15T10:02:11.659Z,100993.28
2022-09-15T10:04:40.298Z,100990.56
2022-09-15T10:07:07.638Z,100993.28
2022-09-15T10:09:34.482Z,100993.28
2022-09-15T10:12:03.793Z,100991.06
2022-09-15T10:14:32.035Z,100989.97
2022-09-15T10:17:17.156Z,100993.53
2022-09-15T10:19:54.124Z,100988.88
2022-09-15T10:22:25.542Z,100987.41
2022-09-15T10:24:52.021Z,100994.84
2022-09-15T10:27:18.518Z,100997.59
2022-09-15T10:29:45.345Z,100990.16
2022-09-15T10:32:29.906Z,100993.72
2022-09-15T10:35:18.147Z,100983.56
2022-09-15T10:38:12.082Z,100989.88
2022-09-15T10:40:51.073Z,100992.28
2022-09-15T10:43:44.932Z,100993.09
2022-09-15T10:46:25.839Z,100997.78
2022-09-15T10:49:12.554Z,100989.22
2022-09-15T10:52:13.686Z,100990.88
2022-09-15T10:54:48.608Z,100996.03
2022-09-15T10:57:38.276Z,100996.03
2022-09-15T11:00:25.696Z,101002.03
2022-09-15T11:02:55.333Z,100997.34
2022-09-15T11:05:33.593Z,101009.94
2022-09-15T11:08:19.119Z,101018.16
2022-09-15T11:10:51.805Z,101019.28
2022-09-15T11:13:27.586Z,101018.16
2022-09-15T11:16:12.444Z,101013.81
2022-09-15T11:19:00.949Z,101013.81
2022-09-15T11:21:47.512Z,101011.06
2022-09-15T11:25:02.054Z,101017.34
2022-09-15T11:27:36.143Z,101022.03
2022-09-15T11:30:20.713Z,101023.66
2022-09-15T11:32:57.995Z,101027.19
2022-09-15T11:35:31.204Z,101028.31
2022-09-15T11:38:18.172Z,101025.56
2022-09-15T11:41:22.409Z,101026.38
2022-09-15T11:44:16.653Z,101025.25
2022-09-15T11:47:01.610Z,101031.88
2022-09-15T11:49:45.414Z,101027.19
2022-09-15T11:52:33.473Z,101035.41
2022-09-15T11:55:22.581Z,101036.22
2022-09-15T11:57:52.780Z,101032.69
2022-09-15T12:00:20.436Z,101038.97
2022-09-15T12:03:13.433Z,101032.38
2022-09-15T12:05:48.571Z,101039.78
2022-09-15T12:08:24.229Z,101034.28
2022-09-15T12:10:54.552Z,101033.19
2022-09-15T12:13:22.563Z,101042.22
2022-09-15T12:15:50.531Z,101034.81
2022-09-15T12:18:38.434Z,101025.78
2022-09-15T12:21:13.253Z,101031.25
2022-09-15T12:23:59.928Z,101023.84
2022-09-15T12:26:27.638Z,101027.38
2022-09-15T12:28:57.473Z,101031.75
2022-09-15T12:31:34.473Z,101039.97
2022-09-15T12:34:30.345Z,101032.56
2022-09-15T12:37:18.176Z,101035.31
2022-09-15T12:39:47.123Z,101038.88
2022-09-15T12:42:15.960Z,101031.44
2022-09-15T12:44:42.360Z,101037.75
2022-09-15T12:47:23.474Z,101038.53
2022-09-15T12:49:52.805Z,101040.16
2022-09-15T12:52:21.594Z,101041.00
2022-09-15T12:54:57.704Z,101041.81
2022-09-15T12:57:34.132Z,101041.81
2022-09-15T13:00:27.583Z,101042.59
2022-09-15T13:02:55.599Z,101051.66
2022-09-15T13:05:51.078Z,101047.78
2022-09-15T13:08:29.439Z,101051.66
2022-09-15T13:11:02.649Z,101050.50
2022-09-15T13:13:38.421Z,101048.56
2022-09-15T13:16:12.193Z,101048.91
2022-09-15T13:18:42.074Z,101046.63
2022-09-15T13:21:14.362Z,101055.72
2022-09-15T13:23:44.833Z,101056.50
2022-09-15T13:26:17.899Z,101061.19
2022-09-15T13:28:47.185Z,101057.31
2022-09-15T13:31:26.724Z,101062.81
2022-09-15T13:40:48.016Z,101087.50
2022-09-15T13:43:32.219Z,101077.34
2022-09-15T13:46:13.793Z,101074.59
2022-09-15T13:49:28.304Z,101068.28
2022-09-15T13:52:15.926Z,101072.66
2022-09-15T13:55:24.153Z,101069.91
2022-09-15T14:00:56.043Z,101066.34
2022-09-15T14:03:44.697Z,101058.13
2022-09-15T14:06:36.760Z,101065.56
2022-09-15T14:09:09.335Z,101058.94
2022-09-15T14:11:37.714Z,101058.94
2022-09-15T14:14:09.752Z,101056.19
2022-09-15T14:16:37.834Z,101062.47
2022-09-15T14:19:21.621Z,101058.94
2022-09-15T14:21:53.797Z,101068.78
2022-09-15T14:24:27.921Z,101063.63
2022-09-15T14:26:54.960Z,101063.28
2022-09-15T14:29:24.940Z,101062.47
2022-09-15T14:31:52.878Z,101054.25
2022-09-15T14:34:26.105Z,101063.28
2022-09-15T14:37:04.361Z,101064.13
2022-09-15T14:39:31.302Z,101073.16
2022-09-15T14:47:28.352Z,101069.63
2022-09-15T14:50:20.893Z,101071.53
2022-09-15T14:52:51.888Z,101077.00
2022-09-15T14:55:28.161Z,101070.72
2022-09-15T14:57:59.002Z,101090.72
2022-09-15T15:00:29.992Z,101086.06
2022-09-15T15:03:29.878Z,101082.50
2022-09-15T15:06:02.555Z,101076.19
2022-09-15T15:08:45.463Z,101089.13
2022-09-15T15:11:15.056Z,101090.72
2022-09-15T15:13:44.016Z,101078.13
2022-09-15T15:16:25.079Z,101082.00
2022-09-15T15:18:53.238Z,101078.13
2022-09-15T15:21:48.173Z,101080.06
2022-09-15T15:24:14.890Z,101073.78
2022-09-15T15:26:43.023Z,101078.13
2022-09-15T15:29:40.559Z,101072.16
2022-09-15T15:32:13.126Z,101071.84
2022-09-15T15:34:40.098Z,101067.50
2022-09-15T15:37:25.664Z,101069.09
2022-09-15T15:39:53.141Z,101076.53
2022-09-15T15:42:20.716Z,101071.84
2022-09-15T15:45:21.783Z,101080.06
2022-09-15T15:47:48.828Z,101079.28
2022-09-15T15:50:21.196Z,101078.13
2022-09-15T15:52:51.555Z,101076.53
2022-09-15T15:55:24.439Z,101084.75
2022-09-15T15:57:55.507Z,101075.72
2022-09-15T16:00:31.954Z,101084.75
2022-09-15T16:02:58.470Z,101087.50
2022-09-15T16:05:27.646Z,101086.69
2022-09-15T16:07:56.647Z,101085.88
2022-09-15T16:10:28.126Z,101081.50
2022-09-15T16:12:54.581Z,101086.69
2022-09-15T16:15:21.462Z,101093.28
2022-09-15T16:17:48.729Z,101077.66
2022-09-15T16:20:16.321Z,101092.47
2022-09-15T16:22:43.721Z,101088.94
2022-09-15T16:25:22.744Z,101090.53
2022-09-15T16:27:49.813Z,101087.00
2022-09-15T16:30:16.276Z,101082.63
2022-09-15T16:32:42.878Z,101086.19
2022-09-15T16:35:26.447Z,101090.84
2022-09-15T16:37:52.958Z,101104.56
2022-09-15T16:40:19.564Z,101099.09
2022-09-15T16:42:48.009Z,101085.69
2022-09-15T16:45:25.040Z,101092.81
2022-09-15T16:47:51.571Z,101092.00
2022-09-15T16:50:18.170Z,101094.72
2022-09-15T16:52:44.776Z,101095.53
2022-09-15T16:55:33.275Z,101096.66
2022-09-15T16:58:00.081Z,101101.34
2022-09-15T17:00:31.878Z,101103.25
2022-09-15T17:02:59.592Z,101107.13
2022-09-15T17:05:37.796Z,101106.00
2022-09-15T17:08:05.969Z,101105.19
2022-09-15T17:10:33.467Z,101102.78
2022-09-15T17:13:00.827Z,101098.09
2022-09-15T17:15:34.171Z,101104.38
2022-09-15T17:18:01.942Z,101101.16
2022-09-15T17:20:28.656Z,101108.56
2022-09-15T17:22:55.454Z,101101.97
2022-09-15T17:25:35.715Z,101104.72
2022-09-15T17:28:02.753Z,101103.91
2022-09-15T17:30:31.460Z,101103.91
2022-09-15T17:33:12.105Z,101104.19
2022-09-15T17:35:38.902Z,101104.19
2022-09-15T17:38:06.450Z,101106.94
2022-09-15T17:40:34.842Z,101098.41
2022-09-15T17:43:01.976Z,101101.44
2022-09-15T17:45:33.010Z,101097.91
2022-09-15T17:47:59.860Z,101098.72
2022-09-15T17:50:29.771Z,101099.03
2022-09-15T17:52:57.033Z,101105.31
2022-09-15T17:55:33.854Z,101102.88
2022-09-15T17:58:01.934Z,101092.72
2022-09-15T18:00:33.222Z,101102.06
2022-09-15T18:03:03.679Z,101104.81
2022-09-15T18:05:33.326Z,101098.50
2022-09-15T18:08:03.136Z,101097.72
2022-09-15T18:10:32.210Z,101104.31
2022-09-15T18:12:59.434Z,101109.00
2022-09-15T18:15:29.201Z,101106.56
2022-09-15T18:17:58.561Z,101104.63
2022-09-15T18:20:27.939Z,101108.19
2022-09-15T18:22:55.346Z,101105.75
2022-09-15T18:25:25.488Z,101106.06
2022-09-15T18:27:52.267Z,101110.75
2022-09-15T18:30:19.691Z,101117.03
2022-09-15T18:32:46.414Z,101111.84
2022-09-15T18:35:18.403Z,101106.06
2022-09-15T18:37:50.020Z,101114.28
2022-09-15T18:40:18.457Z,101107.47
2022-09-15T18:42:46.170Z,101112.97
2022-09-15T18:45:15.691Z,101119.25
2022-09-15T18:47:42.858Z,101109.75
2022-09-15T18:50:11.870Z,101124.25
2022-09-15T18:52:39.947Z,101127.00
2022-09-15T18:55:09.158Z,101157.19
2022-09-15T18:57:37.230Z,101157.19
2022-09-15T19:00:10.549Z,101155.03
2022-09-15T19:02:37.238Z,101162.13
2022-09-15T19:05:04.327Z,101151.50
2022-09-15T19:07:30.865Z,101155.03
2022-09-15T19:09:57.969Z,101148.75
2022-09-15T19:12:24.899Z,101151.50
2022-09-15T19:14:51.389Z,101156.97
2022-09-15T19:17:18.108Z,101154.53
2022-09-15T19:19:46.345Z,101149.31
2022-09-15T19:22:13.178Z,101148.53
2022-09-15T19:24:39.628Z,101139.47
2022-09-15T19:27:07.803Z,101138.66
2022-09-15T19:29:36.484Z,101141.72
2022-09-15T19:32:05.280Z,101145.25
2022-09-15T19:34:32.270Z,101146.06
2022-09-15T19:36:58.779Z,101143.63
2022-09-15T19:39:25.410Z,101143.97
2022-09-15T19:41:52.246Z,101144.78
2022-09-15T19:44:18.870Z,101145.56
2022-09-15T19:46:45.808Z,101142.84
2022-09-15T19:49:12.929Z,101147.50
2022-09-15T19:51:39.540Z,101147.50
2022-09-15T19:54:06.999Z,101146.69
2022-09-15T19:56:35.053Z,101145.06
2022-09-15T19:59:04.075Z,101145.06
2022-09-15T20:01:32.680Z,101138.75
2022-09-15T20:04:01.904Z,101140.69
2022-09-15T20:06:32.537Z,101148.41
2022-09-15T20:08:59.475Z,101141.03
2022-09-15T20:11:27.585Z,101136.34
2022-09-15T20:13:55.040Z,101139.38
2022-09-15T20:16:23.050Z,101137.75
2022-09-15T20:18:51.741Z,101140.50
2022-09-15T20:21:46.253Z,101140.50
2022-09-15T20:24:13.793Z,101144.66
2022-09-15T20:26:40.693Z,101143.03
2022-09-15T20:29:07.682Z,101136.44
2022-09-15T20:31:34.548Z,101142.72
2022-09-15T20:34:02.277Z,101143.56
2022-09-15T20:36:36.019Z,101142.22
2022-09-15T20:39:05.211Z,101148.53
2022-09-15T20:41:34.370Z,101144.97
2022-09-15T20:44:01.196Z,101151.28
2022-09-15T20:46:31.426Z,101141.72
2022-09-15T20:48:57.821Z,101159.81
2022-09-15T20:51:26.776Z,101155.75
2022-09-15T20:53:55.194Z,101168.66
2022-09-15T20:56:25.561Z,101143.16
2022-09-15T20:58:54.071Z,101153.31
2022-09-15T21:01:24.187Z,101148.94
2022-09-15T21:03:50.848Z,101152.00
2022-09-15T21:06:20.657Z,101151.66
2022-09-15T21:08:48.543Z,101158.28
2022-09-15T21:11:16.965Z,101158.28
2022-09-15T21:13:44.326Z,101147.63
2022-09-15T21:16:16.486Z,101150.38
2022-09-15T21:18:44.970Z,101156.16
2022-09-15T21:21:13.342Z,101146.00
2022-09-15T21:23:42.614Z,101147.91
2022-09-15T21:26:20.899Z,101151.78
2022-09-15T21:28:47.841Z,101164.38
2022-09-15T21:31:16.965Z,101156.47
2022-09-15T21:33:45.196Z,101160.00
2022-09-15T21:36:17.406Z,101170.16
2022-09-15T21:38:44.839Z,101169.38
2022-09-15T21:41:13.873Z,101168.56
2022-09-15T21:43:42.160Z,101168.84
2022-09-15T21:46:13.170Z,101164.16
2022-09-15T21:48:40.658Z,101167.72
2022-09-15T21:51:08.476Z,101165.28
2022-09-15T21:53:35.039Z,101156.53
2022-09-15T21:56:03.868Z,101160.13
2022-09-15T21:58:38.937Z,101162.03
2022-09-15T22:01:11.821Z,101152.19
2022-09-15T22:03:42.057Z,101146.72
2022-09-15T22:06:09.504Z,101156.88
2022-09-15T22:08:36.180Z,101153.31
2022-09-15T22:11:03.063Z,101158.28
2022-09-15T22:13:29.638Z,101155.53
2022-09-15T22:16:04.621Z,101152.78
2022-09-15T22:18:31.521Z,101148.16
2022-09-15T22:21:11.192Z,101158.91
2022-09-15T22:23:38.308Z,101153.91
2022-09-15T22:26:07.758Z,101157.78
2022-09-15T22:28:34.294Z,101158.06
2022-09-15T22:31:02.761Z,101145.22
2022-09-15T22:33:29.723Z,101154.53
2022-09-15T22:35:57.169Z,101147.09
2022-09-15T22:38:26.713Z,101153.72
2022-09-15T22:40:53.260Z,101147.44
2022-09-15T22:43:20.106Z,101147.75
2022-09-15T22:45:46.592Z,101153.22
2022-09-15T22:48:13.117Z,101146.91
2022-09-15T22:50:39.675Z,101158.69
2022-09-15T22:53:06.170Z,101146.09
2022-09-15T22:55:32.906Z,101159.00
2022-09-15T22:57:59.339Z,101151.91
2022-09-15T23:00:26.199Z,101151.91
2022-09-15T23:02:52.692Z,101157.38
2022-09-15T23:05:19.213Z,101164.25
2022-09-15T23:07:45.662Z,101157.69
2022-09-15T23:10:12.168Z,101163.16
2022-09-15T23:12:38.845Z,101164.25
2022-09-15T23:15:06.599Z,101156.03
2022-09-15T23:17:34.565Z,101157.16
2022-09-15T23:20:01.740Z,101152.81
2022-09-15T23:22:28.244Z,101145.69
2022-09-15T23:24:54.879Z,101140.19
2022-09-15T23:27:21.318Z,101132.31
2022-09-15T23:29:55.408Z,101135.03
2022-09-15T23:32:21.936Z,101130.69
2022-09-15T23:34:49.142Z,101136.97
2022-09-15T23:37:15.764Z,101136.44
2022-09-15T23:39:42.566Z,101137.25
2022-09-15T23:42:09.039Z,101136.44
2022-09-15T23:44:35.479Z,101134.84
2022-09-15T23:47:02.101Z,101126.63
2022-09-15T23:49:28.732Z,101123.06
2022-09-15T23:51:55.192Z,101113.22
2022-09-15T23:54:21.652Z,101120.63
2022-09-15T23:56:48.154Z,101121.72
2022-09-15T23:59:14.697Z,101127.22
